Time,TemperatureF,DewpointF,PressureIn,WindDirection,WindDirectionDegrees,WindSpeedMPH,WindSpeedGustMPH,Humidity,HourlyPrecipIn,Conditions,Clouds,dailyrainin,SolarRadiationWatts/m^2,SoftwareType,DateUTC
2013-08-29 00:00:00,73.0,70.0,30.02,West,278,1.0,-999.0,90,-99.99,,,-99.99,0.000000,,2013-08-29 04:00:00,
2013-08-29 00:54:00,73.0,70.0,30.02,West,278,1.0,-999.0,90,-99.99,,,-99.99,0.000000,,2013-08-29 04:54:00,
2013-08-29 04:00:00,69.0,68.0,30.02,North,350,0.0,-999.0,96,-99.99,,,-99.99,0.000000,,2013-08-29 08:00:00,
2013-08-29 04:52:00,69.0,68.0,30.02,North,350,0.0,-999.0,96,-99.99,,,-99.99,0.000000,,2013-08-29 08:52:00,
2013-08-29 06:00:00,68.0,67.0,30.03,WNW,294,0.0,-999.0,97,-99.99,,,-99.99,0.060000,,2013-08-29 10:00:00,
2013-08-29 06:53:00,68.0,67.0,30.03,WNW,294,0.0,-999.0,97,-99.99,,,-99.99,0.060000,,2013-08-29 10:53:00,
2013-08-29 07:00:00,67.0,66.0,30.05,West,279,0.0,-999.0,97,-99.99,,,-99.99,1.600000,,2013-08-29 11:00:00,
2013-08-29 07:52:00,67.0,66.0,30.05,West,279,0.0,-999.0,97,-99.99,,,-99.99,1.600000,,2013-08-29 11:52:00,
2013-08-29 08:00:00,69.0,69.0,30.08,NNE,32,0.0,-999.0,97,-99.99,,,-99.99,43.150002,,2013-08-29 12:00:00,
2013-08-29 08:52:00,69.0,69.0,30.08,NNE,32,0.0,-999.0,97,-99.99,,,-99.99,43.150002,,2013-08-29 12:52:00,
2013-08-29 09:00:00,76.0,72.0,30.15,SSE,147,1.0,-999.0,86,-99.99,,,-99.99,166.500000,,2013-08-29 13:00:00,
2013-08-29 09:52:00,76.0,72.0,30.15,SSE,147,1.0,-999.0,86,-99.99,,,-99.99,166.500000,,2013-08-29 13:52:00,
2013-08-29 10:00:00,80.0,73.0,30.20,NE,45,1.0,-999.0,79,-99.99,,,-99.99,285.799988,,2013-08-29 14:00:00,
2013-08-29 10:52:00,80.0,73.0,30.20,NE,45,1.0,-999.0,79,-99.99,,,-99.99,285.799988,,2013-08-29 14:52:00,
2013-08-29 12:00:00,79.0,71.0,30.13,NE,46,1.0,-999.0,78,-99.99,,,-99.99,285.700012,,2013-08-29 16:00:00,
2013-08-29 12:54:00,79.0,71.0,30.13,NE,46,1.0,-999.0,78,-99.99,,,-99.99,285.700012,,2013-08-29 16:54:00,
2013-08-29 13:00:00,82.0,70.0,30.11,East,94,2.0,-999.0,68,-99.99,,,-99.99,601.200012,,2013-08-29 17:00:00,
2013-08-29 13:53:00,82.0,70.0,30.11,East,94,2.0,-999.0,68,-99.99,,,-99.99,601.200012,,2013-08-29 17:53:00,
2013-08-29 15:00:00,83.0,70.0,30.08,ENE,71,2.0,-999.0,65,-99.99,,,-99.99,741.000000,,2013-08-29 19:00:00,
2013-08-29 15:53:00,83.0,70.0,30.08,ENE,71,2.0,-999.0,65,-99.99,,,-99.99,741.000000,,2013-08-29 19:53:00,
2013-08-29 19:00:00,78.0,72.0,30.09,NE,50,1.0,-999.0,82,-99.99,,,-99.99,64.239998,,2013-08-29 23:00:00,
2013-08-29 19:53:00,78.0,72.0,30.09,NE,50,1.0,-999.0,82,-99.99,,,-99.99,64.239998,,2013-08-29 23:53:00,
2013-08-29 21:00:00,72.0,70.0,30.13,NW,312,0.0,-999.0,95,-99.99,,,-99.99,0.090000,,2013-08-30 01:00:00,
2013-08-29 21:52:00,72.0,70.0,30.13,NW,312,0.0,-999.0,95,-99.99,,,-99.99,0.090000,,2013-08-30 01:52:00,
2013-08-29 23:00:00,70.0,69.0,30.16,WNW,302,0.0,-999.0,95,-99.99,,,-99.99,0.000000,,2013-08-30 03:00:00,
2013-08-29 23:55:00,70.0,69.0,30.16,WNW,302,0.0,-999.0,95,-99.99,,,-99.99,0.000000,,2013-08-30 03:55:00,